sensor_id;sensor_type;location;lat;lon;timestamp;P1;durP1;ratioP1;P2;durP2;ratioP2
12593;SDS011;6362;50.208;9.182;2023-08-30T00:00:30;2.95;;;2.00;;
12593;SDS011;6362;50.208;9.182;2023-08-30T00:02:56;3.42;;;2.28;;
12593;SDS011;6362;50.208;9.182;2023-08-30T00:05:21;3.33;;;1.80;;
12593;SDS011;6362;50.208;9.182;2023-08-30T00:07:46;3.05;;;1.85;;
12593;SDS011;6362;50.208;9.182;2023-08-30T00:10:12;2.15;;;1.50;;
12593;SDS011;6362;50.208;9.182;2023-08-30T00:12:37;2.53;;;2.20;;
12593;SDS011;6362;50.208;9.182;2023-08-30T00:15:03;4.65;;;2.38;;
12593;SDS011;6362;50.208;9.182;2023-08-30T00:17:29;2.20;;;1.73;;
12593;SDS011;6362;50.208;9.182;2023-08-30T00:19:55;3.00;;;1.58;;
12593;SDS011;6362;50.208;9.182;2023-08-30T00:22:21;3.78;;;1.50;;
12593;SDS011;6362;50.208;9.182;2023-08-30T00:24:47;4.82;;;1.50;;
12593;SDS011;6362;50.208;9.182;2023-08-30T00:27:13;3.47;;;2.13;;
12593;SDS011;6362;50.208;9.182;2023-08-30T00:29:38;3.38;;;2.33;;
12593;SDS011;6362;50.208;9.182;2023-08-30T00:32:04;2.67;;;1.98;;
12593;SDS011;6362;50.208;9.182;2023-08-30T00:34:29;5.35;;;2.20;;
12593;SDS011;6362;50.208;9.182;2023-08-30T00:36:55;2.28;;;2.00;;
12593;SDS011;6362;50.208;9.182;2023-08-30T00:39:20;2.88;;;1.73;;
12593;SDS011;6362;50.208;9.182;2023-08-30T00:41:46;6.00;;;1.70;;
12593;SDS011;6362;50.208;9.182;2023-08-30T00:44:11;2.65;;;1.80;;
12593;SDS011;6362;50.208;9.182;2023-08-30T00:46:36;2.72;;;1.80;;
12593;SDS011;6362;50.208;9.182;2023-08-30T00:49:02;3.05;;;2.17;;
12593;SDS011;6362;50.208;9.182;2023-08-30T00:51:29;4.70;;;2.40;;
12593;SDS011;6362;50.208;9.182;2023-08-30T00:53:55;3.58;;;1.88;;
12593;SDS011;6362;50.208;9.182;2023-08-30T00:56:21;2.53;;;1.90;;
12593;SDS011;6362;50.208;9.182;2023-08-30T00:58:49;3.35;;;2.03;;
12593;SDS011;6362;50.208;9.182;2023-08-30T01:01:16;6.78;;;2.45;;
12593;SDS011;6362;50.208;9.182;2023-08-30T01:03:43;3.92;;;2.17;;
12593;SDS011;6362;50.208;9.182;2023-08-30T01:06:09;4.97;;;2.35;;
12593;SDS011;6362;50.208;9.182;2023-08-30T01:08:35;3.25;;;2.60;;
12593;SDS011;6362;50.208;9.182;2023-08-30T01:11:08;4.90;;;2.40;;
12593;SDS011;6362;50.208;9.182;2023-08-30T01:16:47;3.08;;;2.20;;
12593;SDS011;6362;50.208;9.182;2023-08-30T01:25:19;4.28;;;1.90;;
12593;SDS011;6362;50.208;9.182;2023-08-30T01:27:52;4.35;;;2.25;;
12593;SDS011;6362;50.208;9.182;2023-08-30T01:30:19;4.22;;;2.10;;
12593;SDS011;6362;50.208;9.182;2023-08-30T01:32:45;2.67;;;1.92;;
12593;SDS011;6362;50.208;9.182;2023-08-30T01:35:12;1.92;;;1.73;;
12593;SDS011;6362;50.208;9.182;2023-08-30T01:37:43;2.65;;;2.05;;
12593;SDS011;6362;50.208;9.182;2023-08-30T01:40:10;2.38;;;2.05;;
12593;SDS011;6362;50.208;9.182;2023-08-30T01:42:37;1.88;;;1.65;;
12593;SDS011;6362;50.208;9.182;2023-08-30T01:45:04;4.80;;;2.30;;
12593;SDS011;6362;50.208;9.182;2023-08-30T01:47:30;4.38;;;1.92;;
12593;SDS011;6362;50.208;9.182;2023-08-30T01:49:56;2.58;;;2.03;;
12593;SDS011;6362;50.208;9.182;2023-08-30T01:52:23;2.63;;;2.30;;
12593;SDS011;6362;50.208;9.182;2023-08-30T01:54:50;4.60;;;2.05;;
12593;SDS011;6362;50.208;9.182;2023-08-30T01:57:17;3.55;;;1.85;;
12593;SDS011;6362;50.208;9.182;2023-08-30T01:59:42;3.58;;;1.65;;
12593;SDS011;6362;50.208;9.182;2023-08-30T02:02:08;4.85;;;2.25;;
12593;SDS011;6362;50.208;9.182;2023-08-30T02:04:33;4.60;;;2.03;;
12593;SDS011;6362;50.208;9.182;2023-08-30T02:07:03;3.35;;;2.05;;
12593;SDS011;6362;50.208;9.182;2023-08-30T02:09:44;5.10;;;2.15;;
12593;SDS011;6362;50.208;9.182;2023-08-30T02:12:20;2.53;;;1.67;;
12593;SDS011;6362;50.208;9.182;2023-08-30T02:14:52;2.88;;;1.50;;
12593;SDS011;6362;50.208;9.182;2023-08-30T02:17:18;3.28;;;1.70;;
12593;SDS011;6362;50.208;9.182;2023-08-30T02:19:44;2.72;;;1.95;;
12593;SDS011;6362;50.208;9.182;2023-08-30T02:22:10;3.28;;;1.70;;
12593;SDS011;6362;50.208;9.182;2023-08-30T02:24:36;1.83;;;1.70;;
12593;SDS011;6362;50.208;9.182;2023-08-30T02:27:02;2.50;;;1.63;;
12593;SDS011;6362;50.208;9.182;2023-08-30T02:29:28;1.65;;;1.38;;
12593;SDS011;6362;50.208;9.182;2023-08-30T02:31:53;1.65;;;1.55;;
12593;SDS011;6362;50.208;9.182;2023-08-30T02:34:19;2.28;;;1.58;;
12593;SDS011;6362;50.208;9.182;2023-08-30T02:36:44;2.40;;;1.90;;
12593;SDS011;6362;50.208;9.182;2023-08-30T02:39:11;1.85;;;1.73;;
12593;SDS011;6362;50.208;9.182;2023-08-30T02:41:36;1.50;;;1.40;;
12593;SDS011;6362;50.208;9.182;2023-08-30T02:44:02;2.08;;;1.63;;
12593;SDS011;6362;50.208;9.182;2023-08-30T02:46:28;1.52;;;1.42;;
12593;SDS011;6362;50.208;9.182;2023-08-30T02:48:53;1.90;;;1.67;;
12593;SDS011;6362;50.208;9.182;2023-08-30T02:51:20;1.80;;;1.67;;
12593;SDS011;6362;50.208;9.182;2023-08-30T02:53:45;1.77;;;1.45;;
12593;SDS011;6362;50.208;9.182;2023-08-30T02:56:11;2.35;;;1.42;;
12593;SDS011;6362;50.208;9.182;2023-08-30T02:58:36;3.58;;;1.95;;
12593;SDS011;6362;50.208;9.182;2023-08-30T03:01:02;3.53;;;2.30;;
12593;SDS011;6362;50.208;9.182;2023-08-30T03:03:27;3.30;;;1.70;;
12593;SDS011;6362;50.208;9.182;2023-08-30T03:05:53;2.83;;;1.70;;
12593;SDS011;6362;50.208;9.182;2023-08-30T03:08:18;1.95;;;1.67;;
12593;SDS011;6362;50.208;9.182;2023-08-30T03:10:47;5.60;;;1.77;;
12593;SDS011;6362;50.208;9.182;2023-08-30T03:13:12;3.88;;;2.15;;
12593;SDS011;6362;50.208;9.182;2023-08-30T03:15:37;2.80;;;1.90;;
12593;SDS011;6362;50.208;9.182;2023-08-30T03:18:03;3.38;;;2.00;;
12593;SDS011;6362;50.208;9.182;2023-08-30T03:20:30;2.65;;;1.80;;
12593;SDS011;6362;50.208;9.182;2023-08-30T03:22:56;2.10;;;1.85;;
12593;SDS011;6362;50.208;9.182;2023-08-30T03:25:24;2.13;;;1.67;;
12593;SDS011;6362;50.208;9.182;2023-08-30T03:27:50;2.67;;;1.92;;
12593;SDS011;6362;50.208;9.182;2023-08-30T03:30:15;3.05;;;1.98;;
12593;SDS011;6362;50.208;9.182;2023-08-30T03:32:41;2.47;;;1.70;;
12593;SDS011;6362;50.208;9.182;2023-08-30T03:35:06;2.15;;;1.48;;
12593;SDS011;6362;50.208;9.182;2023-08-30T03:37:33;4.93;;;1.77;;
12593;SDS011;6362;50.208;9.182;2023-08-30T03:39:58;1.60;;;1.50;;
12593;SDS011;6362;50.208;9.182;2023-08-30T03:42:24;1.55;;;1.23;;
12593;SDS011;6362;50.208;9.182;2023-08-30T03:44:49;1.33;;;1.23;;
12593;SDS011;6362;50.208;9.182;2023-08-30T03:47:15;1.30;;;1.20;;
12593;SDS011;6362;50.208;9.182;2023-08-30T03:49:40;2.15;;;1.38;;
12593;SDS011;6362;50.208;9.182;2023-08-30T03:52:07;1.88;;;1.38;;
12593;SDS011;6362;50.208;9.182;2023-08-30T03:54:32;2.10;;;1.52;;
12593;SDS011;6362;50.208;9.182;2023-08-30T03:56:57;2.78;;;1.60;;
12593;SDS011;6362;50.208;9.182;2023-08-30T03:59:23;1.20;;;1.00;;
12593;SDS011;6362;50.208;9.182;2023-08-30T04:01:50;2.55;;;2.20;;
12593;SDS011;6362;50.208;9.182;2023-08-30T04:04:16;2.50;;;1.73;;
12593;SDS011;6362;50.208;9.182;2023-08-30T04:06:45;2.30;;;2.10;;
12593;SDS011;6362;50.208;9.182;2023-08-30T04:09:10;3.15;;;1.70;;
12593;SDS011;6362;50.208;9.182;2023-08-30T04:11:36;2.13;;;1.92;;
12593;SDS011;6362;50.208;9.182;2023-08-30T04:14:02;2.95;;;1.63;;
12593;SDS011;6362;50.208;9.182;2023-08-30T04:16:27;1.90;;;1.60;;
12593;SDS011;6362;50.208;9.182;2023-08-30T04:18:53;2.58;;;1.98;;
12593;SDS011;6362;50.208;9.182;2023-08-30T04:21:19;2.13;;;1.92;;
12593;SDS011;6362;50.208;9.182;2023-08-30T04:23:44;1.92;;;1.63;;
12593;SDS011;6362;50.208;9.182;2023-08-30T04:26:10;1.65;;;1.42;;
12593;SDS011;6362;50.208;9.182;2023-08-30T04:28:38;1.58;;;1.42;;
12593;SDS011;6362;50.208;9.182;2023-08-30T04:31:04;1.70;;;1.35;;
12593;SDS011;6362;50.208;9.182;2023-08-30T04:33:29;1.48;;;1.30;;
12593;SDS011;6362;50.208;9.182;2023-08-30T04:35:55;1.85;;;1.10;;
12593;SDS011;6362;50.208;9.182;2023-08-30T04:38:21;1.23;;;1.13;;
12593;SDS011;6362;50.208;9.182;2023-08-30T04:40:47;1.88;;;1.52;;
12593;SDS011;6362;50.208;9.182;2023-08-30T04:43:13;1.83;;;1.35;;
12593;SDS011;6362;50.208;9.182;2023-08-30T04:45:39;1.30;;;1.20;;
12593;SDS011;6362;50.208;9.182;2023-08-30T04:48:05;1.30;;;1.20;;
12593;SDS011;6362;50.208;9.182;2023-08-30T04:50:31;1.40;;;1.30;;
12593;SDS011;6362;50.208;9.182;2023-08-30T04:52:56;2.50;;;1.60;;
12593;SDS011;6362;50.208;9.182;2023-08-30T04:55:25;1.83;;;1.10;;
12593;SDS011;6362;50.208;9.182;2023-08-30T04:57:50;2.10;;;1.73;;
12593;SDS011;6362;50.208;9.182;2023-08-30T05:00:16;2.78;;;1.15;;
12593;SDS011;6362;50.208;9.182;2023-08-30T05:02:44;3.03;;;1.10;;
12593;SDS011;6362;50.208;9.182;2023-08-30T05:05:11;1.98;;;1.30;;
12593;SDS011;6362;50.208;9.182;2023-08-30T05:07:37;1.67;;;1.40;;
12593;SDS011;6362;50.208;9.182;2023-08-30T05:10:03;1.52;;;1.17;;
12593;SDS011;6362;50.208;9.182;2023-08-30T05:12:29;1.25;;;1.15;;
12593;SDS011;6362;50.208;9.182;2023-08-30T05:14:55;1.27;;;1.10;;
12593;SDS011;6362;50.208;9.182;2023-08-30T05:17:20;1.52;;;1.25;;
12593;SDS011;6362;50.208;9.182;2023-08-30T05:19:46;1.30;;;1.20;;
12593;SDS011;6362;50.208;9.182;2023-08-30T05:22:11;1.58;;;1.35;;
12593;SDS011;6362;50.208;9.182;2023-08-30T05:24:37;2.15;;;1.27;;
12593;SDS011;6362;50.208;9.182;2023-08-30T05:27:03;1.27;;;1.10;;
12593;SDS011;6362;50.208;9.182;2023-08-30T05:29:28;2.00;;;1.30;;
12593;SDS011;6362;50.208;9.182;2023-08-30T05:31:54;1.38;;;1.23;;
12593;SDS011;6362;50.208;9.182;2023-08-30T05:34:19;3.72;;;1.30;;
12593;SDS011;6362;50.208;9.182;2023-08-30T05:36:45;2.80;;;1.40;;
12593;SDS011;6362;50.208;9.182;2023-08-30T05:39:10;2.58;;;1.42;;
12593;SDS011;6362;50.208;9.182;2023-08-30T05:41:36;3.42;;;1.48;;
12593;SDS011;6362;50.208;9.182;2023-08-30T05:44:02;2.22;;;1.60;;
12593;SDS011;6362;50.208;9.182;2023-08-30T05:46:28;3.15;;;2.50;;
12593;SDS011;6362;50.208;9.182;2023-08-30T05:48:53;3.90;;;2.15;;
12593;SDS011;6362;50.208;9.182;2023-08-30T05:51:19;3.95;;;1.75;;
12593;SDS011;6362;50.208;9.182;2023-08-30T05:53:45;3.08;;;2.13;;
12593;SDS011;6362;50.208;9.182;2023-08-30T05:56:10;2.97;;;1.80;;
12593;SDS011;6362;50.208;9.182;2023-08-30T05:58:36;1.98;;;1.77;;
12593;SDS011;6362;50.208;9.182;2023-08-30T06:01:03;1.90;;;1.65;;
12593;SDS011;6362;50.208;9.182;2023-08-30T06:03:28;4.13;;;1.85;;
12593;SDS011;6362;50.208;9.182;2023-08-30T06:05:54;2.08;;;1.67;;
12593;SDS011;6362;50.208;9.182;2023-08-30T06:08:19;2.25;;;1.42;;
12593;SDS011;6362;50.208;9.182;2023-08-30T06:10:45;3.60;;;1.40;;
12593;SDS011;6362;50.208;9.182;2023-08-30T06:13:11;2.35;;;1.85;;
12593;SDS011;6362;50.208;9.182;2023-08-30T06:15:36;1.60;;;1.08;;
12593;SDS011;6362;50.208;9.182;2023-08-30T06:18:04;1.88;;;1.50;;
12593;SDS011;6362;50.208;9.182;2023-08-30T06:20:29;2.15;;;1.65;;
12593;SDS011;6362;50.208;9.182;2023-08-30T06:22:57;5.88;;;2.47;;
12593;SDS011;6362;50.208;9.182;2023-08-30T06:25:23;6.13;;;3.40;;
12593;SDS011;6362;50.208;9.182;2023-08-30T06:27:56;4.72;;;3.47;;
12593;SDS011;6362;50.208;9.182;2023-08-30T06:30:22;5.60;;;3.75;;
12593;SDS011;6362;50.208;9.182;2023-08-30T06:32:49;5.65;;;4.03;;
12593;SDS011;6362;50.208;9.182;2023-08-30T06:35:14;3.97;;;3.38;;
12593;SDS011;6362;50.208;9.182;2023-08-30T06:37:40;5.85;;;4.30;;
12593;SDS011;6362;50.208;9.182;2023-08-30T06:40:06;7.03;;;3.35;;
12593;SDS011;6362;50.208;9.182;2023-08-30T06:42:32;5.47;;;3.50;;
12593;SDS011;6362;50.208;9.182;2023-08-30T06:44:57;4.35;;;3.10;;
12593;SDS011;6362;50.208;9.182;2023-08-30T06:47:23;6.25;;;3.28;;
12593;SDS011;6362;50.208;9.182;2023-08-30T06:49:48;4.45;;;3.63;;
12593;SDS011;6362;50.208;9.182;2023-08-30T06:52:14;5.10;;;4.05;;
12593;SDS011;6362;50.208;9.182;2023-08-30T06:54:39;8.60;;;4.53;;
12593;SDS011;6362;50.208;9.182;2023-08-30T06:57:05;3.33;;;2.83;;
12593;SDS011;6362;50.208;9.182;2023-08-30T06:59:32;4.72;;;3.70;;
12593;SDS011;6362;50.208;9.182;2023-08-30T07:01:57;4.57;;;3.35;;
12593;SDS011;6362;50.208;9.182;2023-08-30T07:04:23;5.03;;;3.40;;
12593;SDS011;6362;50.208;9.182;2023-08-30T07:06:48;5.53;;;3.30;;
12593;SDS011;6362;50.208;9.182;2023-08-30T07:09:14;3.92;;;2.78;;
12593;SDS011;6362;50.208;9.182;2023-08-30T07:11:41;6.70;;;3.30;;
12593;SDS011;6362;50.208;9.182;2023-08-30T07:14:09;5.53;;;4.22;;
12593;SDS011;6362;50.208;9.182;2023-08-30T07:16:34;5.90;;;3.72;;
12593;SDS011;6362;50.208;9.182;2023-08-30T07:19:00;6.85;;;3.88;;
12593;SDS011;6362;50.208;9.182;2023-08-30T07:21:27;4.65;;;3.83;;
12593;SDS011;6362;50.208;9.182;2023-08-30T07:23:52;5.78;;;3.97;;
12593;SDS011;6362;50.208;9.182;2023-08-30T07:26:18;4.75;;;3.58;;
12593;SDS011;6362;50.208;9.182;2023-08-30T07:28:44;4.32;;;3.45;;
12593;SDS011;6362;50.208;9.182;2023-08-30T07:31:10;4.72;;;3.33;;
12593;SDS011;6362;50.208;9.182;2023-08-30T07:33:38;6.28;;;4.07;;
12593;SDS011;6362;50.208;9.182;2023-08-30T07:36:04;5.88;;;3.90;;
12593;SDS011;6362;50.208;9.182;2023-08-30T07:38:30;3.75;;;3.38;;
12593;SDS011;6362;50.208;9.182;2023-08-30T07:40:56;7.30;;;4.47;;
12593;SDS011;6362;50.208;9.182;2023-08-30T07:43:21;5.85;;;4.05;;
12593;SDS011;6362;50.208;9.182;2023-08-30T07:45:47;3.60;;;2.90;;
12593;SDS011;6362;50.208;9.182;2023-08-30T07:48:12;5.63;;;3.78;;
12593;SDS011;6362;50.208;9.182;2023-08-30T07:50:38;4.95;;;3.80;;
12593;SDS011;6362;50.208;9.182;2023-08-30T07:53:03;5.22;;;3.67;;
12593;SDS011;6362;50.208;9.182;2023-08-30T07:55:29;8.00;;;3.55;;
12593;SDS011;6362;50.208;9.182;2023-08-30T07:57:55;6.00;;;3.22;;
12593;SDS011;6362;50.208;9.182;2023-08-30T08:00:20;5.63;;;3.75;;
12593;SDS011;6362;50.208;9.182;2023-08-30T08:02:46;3.65;;;3.22;;
12593;SDS011;6362;50.208;9.182;2023-08-30T08:05:13;3.67;;;2.67;;
12593;SDS011;6362;50.208;9.182;2023-08-30T08:07:39;6.88;;;3.40;;
12593;SDS011;6362;50.208;9.182;2023-08-30T08:10:08;7.30;;;3.50;;
12593;SDS011;6362;50.208;9.182;2023-08-30T08:12:34;6.88;;;4.38;;
12593;SDS011;6362;50.208;9.182;2023-08-30T08:15:00;6.07;;;3.42;;
12593;SDS011;6362;50.208;9.182;2023-08-30T08:17:25;3.80;;;3.33;;
12593;SDS011;6362;50.208;9.182;2023-08-30T08:19:50;5.80;;;3.88;;
12593;SDS011;6362;50.208;9.182;2023-08-30T08:22:16;7.50;;;3.97;;
12593;SDS011;6362;50.208;9.182;2023-08-30T08:24:42;5.35;;;4.10;;
12593;SDS011;6362;50.208;9.182;2023-08-30T08:27:09;4.88;;;4.07;;
12593;SDS011;6362;50.208;9.182;2023-08-30T08:29:34;7.80;;;3.90;;
12593;SDS011;6362;50.208;9.182;2023-08-30T08:32:00;6.47;;;4.70;;
12593;SDS011;6362;50.208;9.182;2023-08-30T08:34:31;7.32;;;4.72;;
12593;SDS011;6362;50.208;9.182;2023-08-30T08:36:56;8.95;;;5.05;;
12593;SDS011;6362;50.208;9.182;2023-08-30T08:39:22;5.30;;;4.10;;
12593;SDS011;6362;50.208;9.182;2023-08-30T08:41:51;4.55;;;3.80;;
12593;SDS011;6362;50.208;9.182;2023-08-30T08:44:19;7.47;;;4.10;;
12593;SDS011;6362;50.208;9.182;2023-08-30T08:46:47;6.93;;;4.85;;
12593;SDS011;6362;50.208;9.182;2023-08-30T08:49:14;5.55;;;4.20;;
12593;SDS011;6362;50.208;9.182;2023-08-30T08:51:41;7.63;;;4.78;;
12593;SDS011;6362;50.208;9.182;2023-08-30T08:54:08;6.88;;;4.53;;
12593;SDS011;6362;50.208;9.182;2023-08-30T08:56:34;6.95;;;5.10;;
12593;SDS011;6362;50.208;9.182;2023-08-30T08:59:01;5.78;;;4.53;;
12593;SDS011;6362;50.208;9.182;2023-08-30T09:01:26;7.28;;;4.25;;
12593;SDS011;6362;50.208;9.182;2023-08-30T09:03:52;8.05;;;5.50;;
12593;SDS011;6362;50.208;9.182;2023-08-30T09:06:18;6.72;;;4.97;;
12593;SDS011;6362;50.208;9.182;2023-08-30T09:08:44;7.85;;;4.45;;
12593;SDS011;6362;50.208;9.182;2023-08-30T09:11:10;5.15;;;4.40;;
12593;SDS011;6362;50.208;9.182;2023-08-30T09:13:35;7.20;;;4.90;;
12593;SDS011;6362;50.208;9.182;2023-08-30T09:16:01;6.50;;;4.50;;
12593;SDS011;6362;50.208;9.182;2023-08-30T09:18:27;7.35;;;4.68;;
12593;SDS011;6362;50.208;9.182;2023-08-30T09:21:04;8.05;;;4.82;;
12593;SDS011;6362;50.208;9.182;2023-08-30T09:23:38;8.07;;;4.78;;
12593;SDS011;6362;50.208;9.182;2023-08-30T09:26:04;5.55;;;4.05;;
12593;SDS011;6362;50.208;9.182;2023-08-30T09:28:30;6.88;;;4.97;;
12593;SDS011;6362;50.208;9.182;2023-08-30T09:30:57;6.05;;;4.45;;
12593;SDS011;6362;50.208;9.182;2023-08-30T09:33:29;9.45;;;5.07;;
12593;SDS011;6362;50.208;9.182;2023-08-30T09:35:59;7.53;;;4.25;;
12593;SDS011;6362;50.208;9.182;2023-08-30T09:38:25;9.43;;;4.70;;
12593;SDS011;6362;50.208;9.182;2023-08-30T09:40:51;6.60;;;4.10;;
12593;SDS011;6362;50.208;9.182;2023-08-30T09:43:18;6.55;;;4.95;;
12593;SDS011;6362;50.208;9.182;2023-08-30T09:45:47;5.88;;;4.13;;
12593;SDS011;6362;50.208;9.182;2023-08-30T09:48:12;5.03;;;3.70;;
12593;SDS011;6362;50.208;9.182;2023-08-30T09:50:38;5.55;;;4.82;;
12593;SDS011;6362;50.208;9.182;2023-08-30T09:53:08;5.95;;;4.32;;
12593;SDS011;6362;50.208;9.182;2023-08-30T09:55:37;5.43;;;4.13;;
12593;SDS011;6362;50.208;9.182;2023-08-30T09:58:03;5.68;;;3.85;;
12593;SDS011;6362;50.208;9.182;2023-08-30T10:00:32;5.95;;;4.00;;
12593;SDS011;6362;50.208;9.182;2023-08-30T10:02:58;5.70;;;3.72;;
12593;SDS011;6362;50.208;9.182;2023-08-30T10:05:25;5.88;;;3.80;;
12593;SDS011;6362;50.208;9.182;2023-08-30T10:07:52;7.68;;;4.45;;
12593;SDS011;6362;50.208;9.182;2023-08-30T10:10:19;5.75;;;4.65;;
12593;SDS011;6362;50.208;9.182;2023-08-30T10:12:45;6.35;;;4.57;;
12593;SDS011;6362;50.208;9.182;2023-08-30T10:15:11;4.70;;;4.05;;
12593;SDS011;6362;50.208;9.182;2023-08-30T10:17:37;7.10;;;4.50;;
12593;SDS011;6362;50.208;9.182;2023-08-30T10:20:09;7.22;;;4.53;;
12593;SDS011;6362;50.208;9.182;2023-08-30T10:22:37;5.18;;;4.28;;
12593;SDS011;6362;50.208;9.182;2023-08-30T10:25:06;10.32;;;4.55;;
12593;SDS011;6362;50.208;9.182;2023-08-30T10:27:37;4.85;;;4.30;;
12593;SDS011;6362;50.208;9.182;2023-08-30T10:30:04;4.93;;;4.43;;
12593;SDS011;6362;50.208;9.182;2023-08-30T10:32:38;9.40;;;4.30;;
12593;SDS011;6362;50.208;9.182;2023-08-30T10:35:10;9.38;;;5.97;;
12593;SDS011;6362;50.208;9.182;2023-08-30T10:37:37;6.13;;;4.70;;
12593;SDS011;6362;50.208;9.182;2023-08-30T10:40:02;8.38;;;4.80;;
12593;SDS011;6362;50.208;9.182;2023-08-30T10:42:28;6.70;;;4.50;;
12593;SDS011;6362;50.208;9.182;2023-08-30T10:44:59;5.57;;;3.70;;
12593;SDS011;6362;50.208;9.182;2023-08-30T10:47:30;4.72;;;3.22;;
12593;SDS011;6362;50.208;9.182;2023-08-30T10:49:57;3.95;;;3.40;;
12593;SDS011;6362;50.208;9.182;2023-08-30T10:52:25;5.70;;;3.75;;
12593;SDS011;6362;50.208;9.182;2023-08-30T10:54:51;6.75;;;4.40;;
12593;SDS011;6362;50.208;9.182;2023-08-30T10:57:21;4.38;;;3.13;;
12593;SDS011;6362;50.208;9.182;2023-08-30T11:02:35;5.35;;;3.42;;
12593;SDS011;6362;50.208;9.182;2023-08-30T11:05:02;5.57;;;3.00;;
12593;SDS011;6362;50.208;9.182;2023-08-30T11:07:28;6.10;;;3.53;;
12593;SDS011;6362;50.208;9.182;2023-08-30T11:09:54;4.00;;;3.30;;
12593;SDS011;6362;50.208;9.182;2023-08-30T11:12:20;5.38;;;4.00;;
12593;SDS011;6362;50.208;9.182;2023-08-30T11:14:51;4.10;;;2.95;;
12593;SDS011;6362;50.208;9.182;2023-08-30T11:17:19;3.78;;;3.25;;
12593;SDS011;6362;50.208;9.182;2023-08-30T11:19:44;5.18;;;2.95;;
12593;SDS011;6362;50.208;9.182;2023-08-30T11:22:12;4.18;;;3.00;;
12593;SDS011;6362;50.208;9.182;2023-08-30T11:24:37;3.72;;;2.75;;
12593;SDS011;6362;50.208;9.182;2023-08-30T11:27:03;4.38;;;2.42;;
12593;SDS011;6362;50.208;9.182;2023-08-30T11:29:29;3.72;;;2.97;;
12593;SDS011;6362;50.208;9.182;2023-08-30T11:31:54;4.53;;;2.40;;
12593;SDS011;6362;50.208;9.182;2023-08-30T11:34:20;2.78;;;2.22;;
12593;SDS011;6362;50.208;9.182;2023-08-30T11:36:47;3.35;;;2.03;;
12593;SDS011;6362;50.208;9.182;2023-08-30T11:39:13;2.55;;;2.00;;
12593;SDS011;6362;50.208;9.182;2023-08-30T11:41:39;2.97;;;2.25;;
12593;SDS011;6362;50.208;9.182;2023-08-30T11:44:05;3.55;;;2.55;;
12593;SDS011;6362;50.208;9.182;2023-08-30T11:46:30;1.75;;;1.50;;
12593;SDS011;6362;50.208;9.182;2023-08-30T11:48:57;3.05;;;2.10;;
12593;SDS011;6362;50.208;9.182;2023-08-30T11:51:22;2.78;;;1.88;;
12593;SDS011;6362;50.208;9.182;2023-08-30T11:53:48;3.58;;;2.25;;
12593;SDS011;6362;50.208;9.182;2023-08-30T11:56:14;3.15;;;2.25;;
12593;SDS011;6362;50.208;9.182;2023-08-30T11:58:41;3.45;;;2.10;;
12593;SDS011;6362;50.208;9.182;2023-08-30T12:01:08;1.90;;;1.70;;
12593;SDS011;6362;50.208;9.182;2023-08-30T12:03:34;5.25;;;2.00;;
12593;SDS011;6362;50.208;9.182;2023-08-30T12:06:01;3.20;;;1.52;;
12593;SDS011;6362;50.208;9.182;2023-08-30T12:08:30;2.15;;;1.92;;
12593;SDS011;6362;50.208;9.182;2023-08-30T12:10:57;4.45;;;2.13;;
12593;SDS011;6362;50.208;9.182;2023-08-30T12:15:52;3.20;;;1.90;;
12593;SDS011;6362;50.208;9.182;2023-08-30T12:18:24;2.65;;;1.70;;
12593;SDS011;6362;50.208;9.182;2023-08-30T12:20:58;1.73;;;1.58;;
12593;SDS011;6362;50.208;9.182;2023-08-30T12:23:26;2.97;;;1.40;;
12593;SDS011;6362;50.208;9.182;2023-08-30T12:26:11;5.53;;;1.52;;
12593;SDS011;6362;50.208;9.182;2023-08-30T12:28:37;2.47;;;1.70;;
12593;SDS011;6362;50.208;9.182;2023-08-30T12:31:04;2.22;;;1.70;;
12593;SDS011;6362;50.208;9.182;2023-08-30T12:33:30;1.85;;;1.50;;
12593;SDS011;6362;50.208;9.182;2023-08-30T12:35:56;1.63;;;1.50;;
12593;SDS011;6362;50.208;9.182;2023-08-30T12:38:23;3.08;;;2.08;;
12593;SDS011;6362;50.208;9.182;2023-08-30T12:40:53;1.90;;;1.33;;
12593;SDS011;6362;50.208;9.182;2023-08-30T12:43:20;1.85;;;1.50;;
12593;SDS011;6362;50.208;9.182;2023-08-30T12:45:46;2.13;;;1.42;;
12593;SDS011;6362;50.208;9.182;2023-08-30T12:48:13;2.30;;;1.58;;
12593;SDS011;6362;50.208;9.182;2023-08-30T12:50:40;4.10;;;2.15;;
12593;SDS011;6362;50.208;9.182;2023-08-30T12:53:07;3.45;;;1.38;;
12593;SDS011;6362;50.208;9.182;2023-08-30T12:55:32;2.30;;;1.70;;
12593;SDS011;6362;50.208;9.182;2023-08-30T12:58:05;4.43;;;1.73;;
12593;SDS011;6362;50.208;9.182;2023-08-30T13:00:32;2.22;;;1.30;;
12593;SDS011;6362;50.208;9.182;2023-08-30T13:02:58;5.03;;;1.70;;
12593;SDS011;6362;50.208;9.182;2023-08-30T13:05:24;2.35;;;1.30;;
12593;SDS011;6362;50.208;9.182;2023-08-30T13:07:49;3.10;;;1.70;;
12593;SDS011;6362;50.208;9.182;2023-08-30T13:10:15;2.25;;;1.52;;
12593;SDS011;6362;50.208;9.182;2023-08-30T13:12:41;1.65;;;1.25;;
12593;SDS011;6362;50.208;9.182;2023-08-30T13:15:07;5.30;;;2.83;;
12593;SDS011;6362;50.208;9.182;2023-08-30T13:17:33;5.43;;;2.97;;
12593;SDS011;6362;50.208;9.182;2023-08-30T13:19:58;3.65;;;2.67;;
12593;SDS011;6362;50.208;9.182;2023-08-30T13:22:24;4.65;;;2.53;;
12593;SDS011;6362;50.208;9.182;2023-08-30T13:24:51;2.17;;;1.42;;
12593;SDS011;6362;50.208;9.182;2023-08-30T13:27:17;1.83;;;1.25;;
12593;SDS011;6362;50.208;9.182;2023-08-30T13:29:42;2.08;;;1.38;;
12593;SDS011;6362;50.208;9.182;2023-08-30T13:32:08;3.35;;;1.60;;
12593;SDS011;6362;50.208;9.182;2023-08-30T13:34:33;2.97;;;2.08;;
12593;SDS011;6362;50.208;9.182;2023-08-30T13:36:59;2.33;;;1.20;;
12593;SDS011;6362;50.208;9.182;2023-08-30T13:39:24;2.95;;;2.00;;
12593;SDS011;6362;50.208;9.182;2023-08-30T13:41:49;2.80;;;1.38;;
12593;SDS011;6362;50.208;9.182;2023-08-30T13:44:15;3.40;;;1.50;;
12593;SDS011;6362;50.208;9.182;2023-08-30T13:46:43;2.35;;;1.70;;
12593;SDS011;6362;50.208;9.182;2023-08-30T13:49:09;3.05;;;1.92;;
12593;SDS011;6362;50.208;9.182;2023-08-30T13:51:35;6.55;;;2.00;;
12593;SDS011;6362;50.208;9.182;2023-08-30T13:54:01;4.05;;;1.90;;
12593;SDS011;6362;50.208;9.182;2023-08-30T13:56:26;4.18;;;1.88;;
12593;SDS011;6362;50.208;9.182;2023-08-30T13:58:52;4.15;;;1.90;;
12593;SDS011;6362;50.208;9.182;2023-08-30T14:01:18;5.20;;;2.00;;
12593;SDS011;6362;50.208;9.182;2023-08-30T14:03:43;2.70;;;2.08;;
12593;SDS011;6362;50.208;9.182;2023-08-30T14:06:09;2.90;;;2.10;;
12593;SDS011;6362;50.208;9.182;2023-08-30T14:08:35;3.55;;;2.03;;
12593;SDS011;6362;50.208;9.182;2023-08-30T14:11:00;3.70;;;2.30;;
12593;SDS011;6362;50.208;9.182;2023-08-30T14:13:26;3.80;;;2.13;;
12593;SDS011;6362;50.208;9.182;2023-08-30T14:15:57;2.90;;;2.15;;
12593;SDS011;6362;50.208;9.182;2023-08-30T14:18:22;3.85;;;2.33;;
12593;SDS011;6362;50.208;9.182;2023-08-30T14:20:48;2.40;;;1.90;;
12593;SDS011;6362;50.208;9.182;2023-08-30T14:23:13;3.53;;;1.50;;
12593;SDS011;6362;50.208;9.182;2023-08-30T14:25:39;2.85;;;2.22;;
12593;SDS011;6362;50.208;9.182;2023-08-30T14:28:04;1.90;;;1.52;;
12593;SDS011;6362;50.208;9.182;2023-08-30T14:30:30;4.55;;;2.35;;
12593;SDS011;6362;50.208;9.182;2023-08-30T14:32:55;8.38;;;2.47;;
12593;SDS011;6362;50.208;9.182;2023-08-30T14:35:21;3.30;;;2.08;;
12593;SDS011;6362;50.208;9.182;2023-08-30T14:37:48;3.33;;;2.20;;
12593;SDS011;6362;50.208;9.182;2023-08-30T14:40:14;2.75;;;2.15;;
12593;SDS011;6362;50.208;9.182;2023-08-30T14:42:39;3.22;;;2.15;;
12593;SDS011;6362;50.208;9.182;2023-08-30T14:45:05;3.35;;;2.20;;
12593;SDS011;6362;50.208;9.182;2023-08-30T14:47:35;3.55;;;2.15;;
12593;SDS011;6362;50.208;9.182;2023-08-30T14:50:00;3.30;;;2.10;;
12593;SDS011;6362;50.208;9.182;2023-08-30T14:52:28;3.15;;;2.72;;
12593;SDS011;6362;50.208;9.182;2023-08-30T14:54:54;3.75;;;2.60;;
12593;SDS011;6362;50.208;9.182;2023-08-30T14:57:20;6.15;;;2.97;;
12593;SDS011;6362;50.208;9.182;2023-08-30T14:59:46;4.57;;;2.67;;
12593;SDS011;6362;50.208;9.182;2023-08-30T15:02:12;3.17;;;2.05;;
12593;SDS011;6362;50.208;9.182;2023-08-30T15:04:37;3.42;;;2.40;;
12593;SDS011;6362;50.208;9.182;2023-08-30T15:07:02;3.88;;;2.28;;
12593;SDS011;6362;50.208;9.182;2023-08-30T15:09:29;6.13;;;2.75;;